sensor_id;sensor_type;location;lat;lon;timestamp;P1;durP1;ratioP1;P2;durP2;ratioP2
4971;SDS011;2501;51.214;6.768;2024-02-26T00:01:59;4.80;;;2.97;;
4971;SDS011;2501;51.214;6.768;2024-02-26T00:04:28;2.00;;;1.60;;
4971;SDS011;2501;51.214;6.768;2024-02-26T00:06:56;2.50;;;1.60;;
4971;SDS011;2501;51.214;6.768;2024-02-26T00:09:25;3.08;;;1.85;;
4971;SDS011;2501;51.214;6.768;2024-02-26T00:11:56;1.50;;;1.40;;
4971;SDS011;2501;51.214;6.768;2024-02-26T00:14:24;1.33;;;1.20;;
4971;SDS011;2501;51.214;6.768;2024-02-26T00:16:53;3.23;;;2.43;;
4971;SDS011;2501;51.214;6.768;2024-02-26T00:19:21;2.05;;;1.65;;
4971;SDS011;2501;51.214;6.768;2024-02-26T00:21:50;4.00;;;2.05;;
4971;SDS011;2501;51.214;6.768;2024-02-26T00:24:18;1.92;;;1.20;;
4971;SDS011;2501;51.214;6.768;2024-02-26T00:26:47;1.48;;;1.38;;
4971;SDS011;2501;51.214;6.768;2024-02-26T00:29:22;2.38;;;1.30;;
4971;SDS011;2501;51.214;6.768;2024-02-26T00:31:50;5.50;;;3.20;;
4971;SDS011;2501;51.214;6.768;2024-02-26T00:34:19;1.52;;;1.30;;
4971;SDS011;2501;51.214;6.768;2024-02-26T00:36:47;2.40;;;1.40;;
4971;SDS011;2501;51.214;6.768;2024-02-26T00:39:16;2.20;;;1.20;;
4971;SDS011;2501;51.214;6.768;2024-02-26T00:41:44;1.50;;;1.40;;
4971;SDS011;2501;51.214;6.768;2024-02-26T00:44:13;1.40;;;1.30;;
4971;SDS011;2501;51.214;6.768;2024-02-26T00:46:44;1.27;;;1.17;;
4971;SDS011;2501;51.214;6.768;2024-02-26T00:49:12;1.20;;;1.10;;
4971;SDS011;2501;51.214;6.768;2024-02-26T00:51:40;1.20;;;1.10;;
4971;SDS011;2501;51.214;6.768;2024-02-26T00:54:09;1.60;;;1.50;;
4971;SDS011;2501;51.214;6.768;2024-02-26T00:56:37;1.30;;;1.00;;
4971;SDS011;2501;51.214;6.768;2024-02-26T00:59:06;1.40;;;1.30;;
4971;SDS011;2501;51.214;6.768;2024-02-26T01:01:34;2.20;;;1.50;;
4971;SDS011;2501;51.214;6.768;2024-02-26T01:04:05;1.20;;;1.00;;
4971;SDS011;2501;51.214;6.768;2024-02-26T01:06:34;2.15;;;1.40;;
4971;SDS011;2501;51.214;6.768;2024-02-26T01:09:02;1.90;;;1.50;;
4971;SDS011;2501;51.214;6.768;2024-02-26T01:11:31;1.60;;;1.40;;
4971;SDS011;2501;51.214;6.768;2024-02-26T01:14:00;1.60;;;1.02;;
4971;SDS011;2501;51.214;6.768;2024-02-26T01:16:29;1.30;;;1.20;;
4971;SDS011;2501;51.214;6.768;2024-02-26T01:18:57;1.35;;;1.13;;
4971;SDS011;2501;51.214;6.768;2024-02-26T01:21:28;1.20;;;1.10;;
4971;SDS011;2501;51.214;6.768;2024-02-26T01:23:57;1.20;;;1.00;;
4971;SDS011;2501;51.214;6.768;2024-02-26T01:26:25;2.10;;;1.20;;
4971;SDS011;2501;51.214;6.768;2024-02-26T01:28:54;1.10;;;1.00;;
4971;SDS011;2501;51.214;6.768;2024-02-26T01:31:22;2.00;;;1.02;;
4971;SDS011;2501;51.214;6.768;2024-02-26T01:33:51;0.95;;;0.85;;
4971;SDS011;2501;51.214;6.768;2024-02-26T01:36:20;1.80;;;1.05;;
4971;SDS011;2501;51.214;6.768;2024-02-26T01:38:51;2.80;;;1.10;;
4971;SDS011;2501;51.214;6.768;2024-02-26T01:41:19;0.93;;;0.93;;
4971;SDS011;2501;51.214;6.768;2024-02-26T01:43:47;2.28;;;1.38;;
4971;SDS011;2501;51.214;6.768;2024-02-26T01:46:16;1.40;;;1.30;;
4971;SDS011;2501;51.214;6.768;2024-02-26T01:48:46;1.30;;;1.20;;
4971;SDS011;2501;51.214;6.768;2024-02-26T01:51:15;2.70;;;1.10;;
4971;SDS011;2501;51.214;6.768;2024-02-26T01:53:45;1.20;;;1.10;;
4971;SDS011;2501;51.214;6.768;2024-02-26T01:56:16;1.50;;;1.20;;
4971;SDS011;2501;51.214;6.768;2024-02-26T01:58:47;1.13;;;1.02;;
4971;SDS011;2501;51.214;6.768;2024-02-26T02:01:17;1.70;;;1.13;;
4971;SDS011;2501;51.214;6.768;2024-02-26T02:03:48;1.00;;;0.90;;
4971;SDS011;2501;51.214;6.768;2024-02-26T02:06:17;1.95;;;1.00;;
4971;SDS011;2501;51.214;6.768;2024-02-26T02:08:46;1.30;;;1.20;;
4971;SDS011;2501;51.214;6.768;2024-02-26T02:11:18;1.40;;;1.30;;
4971;SDS011;2501;51.214;6.768;2024-02-26T02:13:47;1.80;;;1.07;;
4971;SDS011;2501;51.214;6.768;2024-02-26T02:16:15;2.20;;;1.20;;
4971;SDS011;2501;51.214;6.768;2024-02-26T02:18:44;4.38;;;1.40;;
4971;SDS011;2501;51.214;6.768;2024-02-26T02:21:15;1.45;;;1.35;;
4971;SDS011;2501;51.214;6.768;2024-02-26T02:23:43;4.10;;;1.33;;
4971;SDS011;2501;51.214;6.768;2024-02-26T02:26:14;1.30;;;1.20;;
4971;SDS011;2501;51.214;6.768;2024-02-26T02:28:43;1.50;;;1.10;;
4971;SDS011;2501;51.214;6.768;2024-02-26T02:31:13;1.30;;;1.20;;
4971;SDS011;2501;51.214;6.768;2024-02-26T02:33:42;3.10;;;1.17;;
4971;SDS011;2501;51.214;6.768;2024-02-26T02:36:11;1.50;;;1.20;;
4971;SDS011;2501;51.214;6.768;2024-02-26T02:38:44;3.20;;;1.20;;
4971;SDS011;2501;51.214;6.768;2024-02-26T02:41:18;1.80;;;1.20;;
4971;SDS011;2501;51.214;6.768;2024-02-26T02:43:46;1.58;;;1.40;;
4971;SDS011;2501;51.214;6.768;2024-02-26T02:46:15;1.10;;;1.10;;
4971;SDS011;2501;51.214;6.768;2024-02-26T02:48:43;1.23;;;1.02;;
4971;SDS011;2501;51.214;6.768;2024-02-26T02:51:12;1.50;;;1.00;;
4971;SDS011;2501;51.214;6.768;2024-02-26T02:53:40;1.50;;;1.40;;
4971;SDS011;2501;51.214;6.768;2024-02-26T02:56:11;2.40;;;1.30;;
4971;SDS011;2501;51.214;6.768;2024-02-26T02:58:40;2.70;;;1.25;;
4971;SDS011;2501;51.214;6.768;2024-02-26T03:01:08;3.20;;;1.40;;
4971;SDS011;2501;51.214;6.768;2024-02-26T03:03:36;2.30;;;1.33;;
4971;SDS011;2501;51.214;6.768;2024-02-26T03:06:05;1.90;;;1.63;;
4971;SDS011;2501;51.214;6.768;2024-02-26T03:08:34;1.20;;;1.10;;
4971;SDS011;2501;51.214;6.768;2024-02-26T03:11:04;4.43;;;1.50;;
4971;SDS011;2501;51.214;6.768;2024-02-26T03:13:35;1.50;;;1.40;;
4971;SDS011;2501;51.214;6.768;2024-02-26T03:16:04;1.52;;;0.98;;
4971;SDS011;2501;51.214;6.768;2024-02-26T03:18:33;2.10;;;1.08;;
4971;SDS011;2501;51.214;6.768;2024-02-26T03:21:02;1.40;;;1.30;;
4971;SDS011;2501;51.214;6.768;2024-02-26T03:23:30;1.00;;;0.90;;
4971;SDS011;2501;51.214;6.768;2024-02-26T03:26:01;1.20;;;1.10;;
4971;SDS011;2501;51.214;6.768;2024-02-26T03:28:30;1.00;;;1.00;;
4971;SDS011;2501;51.214;6.768;2024-02-26T03:31:01;1.30;;;1.20;;
4971;SDS011;2501;51.214;6.768;2024-02-26T03:33:30;1.80;;;1.10;;
4971;SDS011;2501;51.214;6.768;2024-02-26T03:35:58;2.05;;;1.30;;
4971;SDS011;2501;51.214;6.768;2024-02-26T03:38:28;1.80;;;1.20;;
4971;SDS011;2501;51.214;6.768;2024-02-26T03:40:56;2.08;;;1.40;;
4971;SDS011;2501;51.214;6.768;2024-02-26T03:43:24;1.20;;;1.10;;
4971;SDS011;2501;51.214;6.768;2024-02-26T03:45:53;2.40;;;1.20;;
4971;SDS011;2501;51.214;6.768;2024-02-26T03:48:27;1.67;;;1.45;;
4971;SDS011;2501;51.214;6.768;2024-02-26T03:50:56;1.67;;;1.30;;
4971;SDS011;2501;51.214;6.768;2024-02-26T03:53:25;2.80;;;1.20;;
4971;SDS011;2501;51.214;6.768;2024-02-26T03:55:53;1.50;;;1.40;;
4971;SDS011;2501;51.214;6.768;2024-02-26T03:58:22;1.40;;;1.30;;
4971;SDS011;2501;51.214;6.768;2024-02-26T04:00:50;1.40;;;1.40;;
4971;SDS011;2501;51.214;6.768;2024-02-26T04:03:19;1.38;;;1.27;;
4971;SDS011;2501;51.214;6.768;2024-02-26T04:05:50;1.60;;;1.25;;
4971;SDS011;2501;51.214;6.768;2024-02-26T04:08:18;3.10;;;1.33;;
4971;SDS011;2501;51.214;6.768;2024-02-26T04:10:47;2.28;;;1.30;;
4971;SDS011;2501;51.214;6.768;2024-02-26T04:13:16;1.90;;;1.17;;
4971;SDS011;2501;51.214;6.768;2024-02-26T04:15:45;1.40;;;1.30;;
4971;SDS011;2501;51.214;6.768;2024-02-26T04:18:14;1.15;;;1.05;;
4971;SDS011;2501;51.214;6.768;2024-02-26T04:20:42;1.80;;;1.20;;
4971;SDS011;2501;51.214;6.768;2024-02-26T04:23:13;3.70;;;1.40;;
4971;SDS011;2501;51.214;6.768;2024-02-26T04:25:42;1.77;;;1.48;;
4971;SDS011;2501;51.214;6.768;2024-02-26T04:28:10;1.80;;;1.70;;
4971;SDS011;2501;51.214;6.768;2024-02-26T04:30:39;1.20;;;1.10;;
4971;SDS011;2501;51.214;6.768;2024-02-26T04:33:08;1.80;;;1.50;;
4971;SDS011;2501;51.214;6.768;2024-02-26T04:35:37;2.50;;;1.40;;
4971;SDS011;2501;51.214;6.768;2024-02-26T04:38:05;2.85;;;1.40;;
4971;SDS011;2501;51.214;6.768;2024-02-26T04:40:36;1.77;;;1.60;;
4971;SDS011;2501;51.214;6.768;2024-02-26T04:43:04;1.80;;;1.65;;
4971;SDS011;2501;51.214;6.768;2024-02-26T04:45:33;2.30;;;1.58;;
4971;SDS011;2501;51.214;6.768;2024-02-26T04:48:01;1.50;;;1.30;;
4971;SDS011;2501;51.214;6.768;2024-02-26T04:50:30;1.80;;;1.40;;
4971;SDS011;2501;51.214;6.768;2024-02-26T04:52:59;1.77;;;1.42;;
4971;SDS011;2501;51.214;6.768;2024-02-26T04:55:27;2.30;;;1.80;;
4971;SDS011;2501;51.214;6.768;2024-02-26T04:57:58;1.50;;;1.40;;
4971;SDS011;2501;51.214;6.768;2024-02-26T05:00:27;2.13;;;1.92;;
4971;SDS011;2501;51.214;6.768;2024-02-26T05:02:55;3.40;;;1.67;;
4971;SDS011;2501;51.214;6.768;2024-02-26T05:05:23;1.70;;;1.60;;
4971;SDS011;2501;51.214;6.768;2024-02-26T05:07:52;3.50;;;1.80;;
4971;SDS011;2501;51.214;6.768;2024-02-26T05:10:20;3.50;;;2.50;;
4971;SDS011;2501;51.214;6.768;2024-02-26T05:12:49;2.00;;;1.80;;
4971;SDS011;2501;51.214;6.768;2024-02-26T05:15:20;3.77;;;2.20;;
4971;SDS011;2501;51.214;6.768;2024-02-26T05:17:48;1.92;;;1.80;;
4971;SDS011;2501;51.214;6.768;2024-02-26T05:20:17;3.00;;;1.90;;
4971;SDS011;2501;51.214;6.768;2024-02-26T05:22:46;4.78;;;2.20;;
4971;SDS011;2501;51.214;6.768;2024-02-26T05:25:15;1.70;;;1.60;;
4971;SDS011;2501;51.214;6.768;2024-02-26T05:27:44;2.60;;;2.22;;
4971;SDS011;2501;51.214;6.768;2024-02-26T05:30:13;3.90;;;1.70;;
4971;SDS011;2501;51.214;6.768;2024-02-26T05:32:44;3.78;;;2.17;;
4971;SDS011;2501;51.214;6.768;2024-02-26T05:35:13;2.42;;;2.30;;
4971;SDS011;2501;51.214;6.768;2024-02-26T05:37:41;3.38;;;2.25;;
4971;SDS011;2501;51.214;6.768;2024-02-26T05:40:10;2.20;;;2.00;;
4971;SDS011;2501;51.214;6.768;2024-02-26T05:42:39;2.30;;;2.08;;
4971;SDS011;2501;51.214;6.768;2024-02-26T05:45:10;2.88;;;2.17;;
4971;SDS011;2501;51.214;6.768;2024-02-26T05:47:38;2.58;;;2.40;;
4971;SDS011;2501;51.214;6.768;2024-02-26T05:50:11;5.57;;;2.20;;
4971;SDS011;2501;51.214;6.768;2024-02-26T05:52:40;2.30;;;2.10;;
4971;SDS011;2501;51.214;6.768;2024-02-26T05:55:09;2.30;;;2.10;;
4971;SDS011;2501;51.214;6.768;2024-02-26T05:57:38;2.70;;;2.50;;
4971;SDS011;2501;51.214;6.768;2024-02-26T06:00:07;2.83;;;2.63;;
4971;SDS011;2501;51.214;6.768;2024-02-26T06:02:37;2.58;;;2.38;;
4971;SDS011;2501;51.214;6.768;2024-02-26T06:05:06;2.80;;;2.60;;
4971;SDS011;2501;51.214;6.768;2024-02-26T06:07:37;2.47;;;2.27;;
4971;SDS011;2501;51.214;6.768;2024-02-26T06:10:06;3.70;;;2.40;;
4971;SDS011;2501;51.214;6.768;2024-02-26T06:12:35;3.58;;;2.85;;
4971;SDS011;2501;51.214;6.768;2024-02-26T06:15:04;2.97;;;2.67;;
4971;SDS011;2501;51.214;6.768;2024-02-26T06:17:34;3.30;;;3.00;;
4971;SDS011;2501;51.214;6.768;2024-02-26T06:20:03;2.50;;;2.40;;
4971;SDS011;2501;51.214;6.768;2024-02-26T06:22:39;3.10;;;2.90;;
4971;SDS011;2501;51.214;6.768;2024-02-26T06:25:08;4.68;;;2.90;;
4971;SDS011;2501;51.214;6.768;2024-02-26T06:27:36;3.10;;;2.80;;
4971;SDS011;2501;51.214;6.768;2024-02-26T06:30:05;3.20;;;2.90;;
4971;SDS011;2501;51.214;6.768;2024-02-26T06:32:36;5.22;;;3.20;;
4971;SDS011;2501;51.214;6.768;2024-02-26T06:35:05;2.90;;;2.70;;
4971;SDS011;2501;51.214;6.768;2024-02-26T06:37:35;4.95;;;4.22;;
4971;SDS011;2501;51.214;6.768;2024-02-26T06:40:07;3.35;;;3.00;;
4971;SDS011;2501;51.214;6.768;2024-02-26T06:42:36;3.30;;;2.92;;
4971;SDS011;2501;51.214;6.768;2024-02-26T06:45:05;4.43;;;2.92;;
4971;SDS011;2501;51.214;6.768;2024-02-26T06:47:34;3.37;;;2.90;;
4971;SDS011;2501;51.214;6.768;2024-02-26T06:50:02;3.00;;;2.80;;
4971;SDS011;2501;51.214;6.768;2024-02-26T06:52:31;3.33;;;2.92;;
4971;SDS011;2501;51.214;6.768;2024-02-26T06:55:00;5.15;;;3.55;;
4971;SDS011;2501;51.214;6.768;2024-02-26T06:57:32;3.30;;;3.10;;
4971;SDS011;2501;51.214;6.768;2024-02-26T07:00:01;5.10;;;3.30;;
4971;SDS011;2501;51.214;6.768;2024-02-26T07:02:30;3.60;;;3.30;;
4971;SDS011;2501;51.214;6.768;2024-02-26T07:04:58;3.80;;;3.50;;
4971;SDS011;2501;51.214;6.768;2024-02-26T07:07:28;5.50;;;3.30;;
4971;SDS011;2501;51.214;6.768;2024-02-26T07:09:57;4.10;;;3.70;;
4971;SDS011;2501;51.214;6.768;2024-02-26T07:12:28;4.28;;;3.40;;
4971;SDS011;2501;51.214;6.768;2024-02-26T07:14:59;4.30;;;3.90;;
4971;SDS011;2501;51.214;6.768;2024-02-26T07:17:28;5.75;;;3.50;;
4971;SDS011;2501;51.214;6.768;2024-02-26T07:19:58;4.15;;;3.80;;
4971;SDS011;2501;51.214;6.768;2024-02-26T07:22:29;4.05;;;3.70;;
4971;SDS011;2501;51.214;6.768;2024-02-26T07:24:57;6.93;;;3.90;;
4971;SDS011;2501;51.214;6.768;2024-02-26T07:27:26;5.90;;;4.20;;
4971;SDS011;2501;51.214;6.768;2024-02-26T07:29:55;12.10;;;6.07;;
4971;SDS011;2501;51.214;6.768;2024-02-26T07:32:26;5.45;;;4.15;;
4971;SDS011;2501;51.214;6.768;2024-02-26T07:34:54;6.50;;;4.47;;
4971;SDS011;2501;51.214;6.768;2024-02-26T07:37:23;5.05;;;4.55;;
4971;SDS011;2501;51.214;6.768;2024-02-26T07:39:51;8.90;;;5.75;;
4971;SDS011;2501;51.214;6.768;2024-02-26T07:42:20;5.30;;;4.85;;
4971;SDS011;2501;51.214;6.768;2024-02-26T07:44:48;7.00;;;4.50;;
4971;SDS011;2501;51.214;6.768;2024-02-26T07:47:17;8.20;;;4.70;;
4971;SDS011;2501;51.214;6.768;2024-02-26T07:49:48;6.90;;;5.20;;
4971;SDS011;2501;51.214;6.768;2024-02-26T07:52:17;10.10;;;5.93;;
4971;SDS011;2501;51.214;6.768;2024-02-26T07:54:45;6.20;;;4.85;;
4971;SDS011;2501;51.214;6.768;2024-02-26T07:57:14;5.20;;;4.70;;
4971;SDS011;2501;51.214;6.768;2024-02-26T07:59:43;17.60;;;4.90;;
4971;SDS011;2501;51.214;6.768;2024-02-26T08:02:14;5.80;;;5.20;;
4971;SDS011;2501;51.214;6.768;2024-02-26T08:04:43;8.40;;;5.97;;
4971;SDS011;2501;51.214;6.768;2024-02-26T08:07:14;7.50;;;4.57;;
4971;SDS011;2501;51.214;6.768;2024-02-26T08:09:42;7.07;;;4.17;;
4971;SDS011;2501;51.214;6.768;2024-02-26T08:12:11;5.45;;;4.32;;
4971;SDS011;2501;51.214;6.768;2024-02-26T08:14:39;5.80;;;4.28;;
4971;SDS011;2501;51.214;6.768;2024-02-26T08:17:09;5.57;;;4.10;;
4971;SDS011;2501;51.214;6.768;2024-02-26T08:19:37;4.67;;;3.80;;
4971;SDS011;2501;51.214;6.768;2024-02-26T08:22:05;6.90;;;3.92;;
4971;SDS011;2501;51.214;6.768;2024-02-26T08:24:38;4.78;;;4.15;;
4971;SDS011;2501;51.214;6.768;2024-02-26T08:27:06;6.00;;;4.35;;
4971;SDS011;2501;51.214;6.768;2024-02-26T08:29:34;4.30;;;3.90;;
4971;SDS011;2501;51.214;6.768;2024-02-26T08:32:03;4.90;;;4.20;;
4971;SDS011;2501;51.214;6.768;2024-02-26T08:34:32;5.93;;;4.32;;
4971;SDS011;2501;51.214;6.768;2024-02-26T08:37:01;11.65;;;4.20;;
4971;SDS011;2501;51.214;6.768;2024-02-26T08:39:30;4.85;;;4.35;;
4971;SDS011;2501;51.214;6.768;2024-02-26T08:42:01;4.18;;;3.80;;
4971;SDS011;2501;51.214;6.768;2024-02-26T08:44:29;3.97;;;3.67;;
4971;SDS011;2501;51.214;6.768;2024-02-26T08:46:57;3.53;;;2.85;;
4971;SDS011;2501;51.214;6.768;2024-02-26T08:49:26;3.95;;;3.55;;
4971;SDS011;2501;51.214;6.768;2024-02-26T08:51:54;4.13;;;3.83;;
4971;SDS011;2501;51.214;6.768;2024-02-26T08:54:23;4.60;;;3.25;;
4971;SDS011;2501;51.214;6.768;2024-02-26T08:56:51;5.03;;;3.40;;
4971;SDS011;2501;51.214;6.768;2024-02-26T08:59:22;4.63;;;3.45;;
4971;SDS011;2501;51.214;6.768;2024-02-26T09:01:51;3.88;;;3.50;;
4971;SDS011;2501;51.214;6.768;2024-02-26T09:04:19;2.90;;;2.70;;
4971;SDS011;2501;51.214;6.768;2024-02-26T09:06:48;4.07;;;3.05;;
4971;SDS011;2501;51.214;6.768;2024-02-26T09:09:16;6.15;;;3.10;;
4971;SDS011;2501;51.214;6.768;2024-02-26T09:11:45;4.30;;;3.10;;
4971;SDS011;2501;51.214;6.768;2024-02-26T09:14:13;3.28;;;3.08;;
4971;SDS011;2501;51.214;6.768;2024-02-26T09:16:44;4.57;;;3.10;;
4971;SDS011;2501;51.214;6.768;2024-02-26T09:19:13;2.53;;;2.33;;
4971;SDS011;2501;51.214;6.768;2024-02-26T09:21:42;2.80;;;2.60;;
4971;SDS011;2501;51.214;6.768;2024-02-26T09:24:11;4.78;;;2.72;;
4971;SDS011;2501;51.214;6.768;2024-02-26T09:26:40;7.10;;;2.50;;
4971;SDS011;2501;51.214;6.768;2024-02-26T09:29:08;5.30;;;2.40;;
4971;SDS011;2501;51.214;6.768;2024-02-26T09:31:36;4.20;;;2.80;;
4971;SDS011;2501;51.214;6.768;2024-02-26T09:34:09;3.70;;;3.00;;
4971;SDS011;2501;51.214;6.768;2024-02-26T09:36:37;4.85;;;2.95;;
4971;SDS011;2501;51.214;6.768;2024-02-26T09:39:05;3.50;;;2.90;;
4971;SDS011;2501;51.214;6.768;2024-02-26T09:41:37;4.68;;;2.75;;
4971;SDS011;2501;51.214;6.768;2024-02-26T09:44:05;5.47;;;2.90;;
4971;SDS011;2501;51.214;6.768;2024-02-26T09:46:34;4.13;;;3.40;;
4971;SDS011;2501;51.214;6.768;2024-02-26T09:49:02;3.47;;;2.90;;
4971;SDS011;2501;51.214;6.768;2024-02-26T09:51:34;3.88;;;2.90;;
4971;SDS011;2501;51.214;6.768;2024-02-26T09:54:03;3.38;;;2.92;;
4971;SDS011;2501;51.214;6.768;2024-02-26T09:56:31;3.33;;;2.60;;
4971;SDS011;2501;51.214;6.768;2024-02-26T09:59:00;4.32;;;3.00;;
4971;SDS011;2501;51.214;6.768;2024-02-26T10:01:30;2.80;;;2.60;;
4971;SDS011;2501;51.214;6.768;2024-02-26T10:03:59;3.37;;;2.70;;
4971;SDS011;2501;51.214;6.768;2024-02-26T10:06:28;3.22;;;2.92;;
4971;SDS011;2501;51.214;6.768;2024-02-26T10:08:59;4.13;;;2.50;;
4971;SDS011;2501;51.214;6.768;2024-02-26T10:11:31;3.17;;;2.87;;
4971;SDS011;2501;51.214;6.768;2024-02-26T10:14:00;3.22;;;2.92;;
4971;SDS011;2501;51.214;6.768;2024-02-26T10:16:28;3.70;;;2.90;;
4971;SDS011;2501;51.214;6.768;2024-02-26T10:18:58;2.70;;;2.50;;
4971;SDS011;2501;51.214;6.768;2024-02-26T10:21:26;2.95;;;2.65;;
4971;SDS011;2501;51.214;6.768;2024-02-26T10:23:55;3.20;;;2.85;;
4971;SDS011;2501;51.214;6.768;2024-02-26T10:26:26;3.63;;;3.13;;
4971;SDS011;2501;51.214;6.768;2024-02-26T10:28:55;5.35;;;2.90;;
4971;SDS011;2501;51.214;6.768;2024-02-26T10:31:27;5.78;;;2.90;;
4971;SDS011;2501;51.214;6.768;2024-02-26T10:33:57;4.03;;;3.47;;
4971;SDS011;2501;51.214;6.768;2024-02-26T10:36:27;4.63;;;3.70;;
4971;SDS011;2501;51.214;6.768;2024-02-26T10:38:56;3.47;;;3.00;;
4971;SDS011;2501;51.214;6.768;2024-02-26T10:41:27;4.00;;;3.00;;
4971;SDS011;2501;51.214;6.768;2024-02-26T10:43:55;3.40;;;3.10;;
4971;SDS011;2501;51.214;6.768;2024-02-26T10:46:25;5.25;;;3.60;;
4971;SDS011;2501;51.214;6.768;2024-02-26T10:48:54;3.90;;;3.58;;
4971;SDS011;2501;51.214;6.768;2024-02-26T10:51:25;4.78;;;4.28;;
4971;SDS011;2501;51.214;6.768;2024-02-26T10:53:55;4.10;;;3.70;;
4971;SDS011;2501;51.214;6.768;2024-02-26T10:56:29;5.00;;;3.90;;
4971;SDS011;2501;51.214;6.768;2024-02-26T10:59:03;5.10;;;4.00;;
4971;SDS011;2501;51.214;6.768;2024-02-26T11:01:35;7.43;;;4.30;;
4971;SDS011;2501;51.214;6.768;2024-02-26T11:04:06;4.10;;;3.50;;
4971;SDS011;2501;51.214;6.768;2024-02-26T11:06:36;5.70;;;4.10;;
4971;SDS011;2501;51.214;6.768;2024-02-26T11:09:06;6.70;;;3.90;;
4971;SDS011;2501;51.214;6.768;2024-02-26T11:11:40;6.13;;;4.07;;
4971;SDS011;2501;51.214;6.768;2024-02-26T11:14:10;4.35;;;3.60;;
4971;SDS011;2501;51.214;6.768;2024-02-26T11:16:40;5.70;;;4.33;;
4971;SDS011;2501;51.214;6.768;2024-02-26T11:19:09;4.72;;;4.18;;
4971;SDS011;2501;51.214;6.768;2024-02-26T11:21:39;5.00;;;4.10;;
4971;SDS011;2501;51.214;6.768;2024-02-26T11:24:08;6.53;;;4.40;;
4971;SDS011;2501;51.214;6.768;2024-02-26T11:26:43;7.68;;;3.65;;
4971;SDS011;2501;51.214;6.768;2024-02-26T11:29:18;5.32;;;3.70;;
4971;SDS011;2501;51.214;6.768;2024-02-26T11:31:50;7.38;;;3.80;;
4971;SDS011;2501;51.214;6.768;2024-02-26T11:34:19;3.95;;;3.55;;
4971;SDS011;2501;51.214;6.768;2024-02-26T11:36:48;4.90;;;4.22;;
4971;SDS011;2501;51.214;6.768;2024-02-26T11:39:17;6.10;;;4.20;;
4971;SDS011;2501;51.214;6.768;2024-02-26T11:41:48;5.90;;;4.63;;
4971;SDS011;2501;51.214;6.768;2024-02-26T11:44:28;4.55;;;4.13;;
4971;SDS011;2501;51.214;6.768;2024-02-26T11:46:57;7.38;;;4.20;;
4971;SDS011;2501;51.214;6.768;2024-02-26T11:49:30;5.13;;;4.00;;
4971;SDS011;2501;51.214;6.768;2024-02-26T11:52:00;6.03;;;4.40;;
4971;SDS011;2501;51.214;6.768;2024-02-26T11:54:39;5.87;;;4.47;;
4971;SDS011;2501;51.214;6.768;2024-02-26T11:57:27;10.65;;;4.55;;
4971;SDS011;2501;51.214;6.768;2024-02-26T12:00:10;5.60;;;4.90;;
4971;SDS011;2501;51.214;6.768;2024-02-26T12:02:44;6.00;;;5.05;;
4971;SDS011;2501;51.214;6.768;2024-02-26T12:05:14;6.43;;;5.00;;
4971;SDS011;2501;51.214;6.768;2024-02-26T12:07:45;8.85;;;5.00;;
4971;SDS011;2501;51.214;6.768;2024-02-26T12:10:15;6.70;;;5.00;;
4971;SDS011;2501;51.214;6.768;2024-02-26T12:12:47;7.15;;;5.18;;
4971;SDS011;2501;51.214;6.768;2024-02-26T12:15:17;8.77;;;5.10;;
4971;SDS011;2501;51.214;6.768;2024-02-26T12:17:48;7.47;;;4.70;;
4971;SDS011;2501;51.214;6.768;2024-02-26T12:20:17;8.90;;;5.73;;
4971;SDS011;2501;51.214;6.768;2024-02-26T12:22:49;9.68;;;5.75;;
4971;SDS011;2501;51.214;6.768;2024-02-26T12:25:20;6.60;;;5.88;;
4971;SDS011;2501;51.214;6.768;2024-02-26T12:27:54;11.18;;;5.90;;
4971;SDS011;2501;51.214;6.768;2024-02-26T12:30:23;9.63;;;6.35;;
4971;SDS011;2501;51.214;6.768;2024-02-26T12:32:54;8.50;;;7.00;;
4971;SDS011;2501;51.214;6.768;2024-02-26T12:35:25;13.35;;;7.25;;
4971;SDS011;2501;51.214;6.768;2024-02-26T12:37:56;11.95;;;6.85;;
4971;SDS011;2501;51.214;6.768;2024-02-26T12:40:26;10.63;;;7.45;;
4971;SDS011;2501;51.214;6.768;2024-02-26T12:42:57;13.30;;;7.93;;
4971;SDS011;2501;51.214;6.768;2024-02-26T12:45:26;14.77;;;8.53;;
4971;SDS011;2501;51.214;6.768;2024-02-26T12:47:56;14.90;;;8.90;;
4971;SDS011;2501;51.214;6.768;2024-02-26T12:50:27;12.18;;;7.90;;
4971;SDS011;2501;51.214;6.768;2024-02-26T12:52:57;14.65;;;9.18;;
4971;SDS011;2501;51.214;6.768;2024-02-26T12:55:26;15.38;;;9.52;;
4971;SDS011;2501;51.214;6.768;2024-02-26T12:57:58;16.35;;;9.13;;
4971;SDS011;2501;51.214;6.768;2024-02-26T13:00:27;15.00;;;9.40;;
4971;SDS011;2501;51.214;6.768;2024-02-26T13:02:56;13.80;;;9.20;;
4971;SDS011;2501;51.214;6.768;2024-02-26T13:05:28;13.73;;;9.40;;
4971;SDS011;2501;51.214;6.768;2024-02-26T13:07:59;15.98;;;9.15;;
4971;SDS011;2501;51.214;6.768;2024-02-26T13:10:28;15.13;;;9.20;;
4971;SDS011;2501;51.214;6.768;2024-02-26T13:13:01;13.13;;;9.23;;
4971;SDS011;2501;51.214;6.768;2024-02-26T13:15:31;11.00;;;8.70;;
4971;SDS011;2501;51.214;6.768;2024-02-26T13:17:59;12.73;;;9.33;;
4971;SDS011;2501;51.214;6.768;2024-02-26T13:20:37;12.10;;;8.68;;
4971;SDS011;2501;51.214;6.768;2024-02-26T13:23:06;15.45;;;9.25;;
4971;SDS011;2501;51.214;6.768;2024-02-26T13:25:36;13.90;;;9.10;;
4971;SDS011;2501;51.214;6.768;2024-02-26T13:28:12;12.05;;;8.85;;
4971;SDS011;2501;51.214;6.768;2024-02-26T13:30:50;19.52;;;9.82;;
4971;SDS011;2501;51.214;6.768;2024-02-26T13:33:21;17.85;;;11.30;;
4971;SDS011;2501;51.214;6.768;2024-02-26T13:35:50;14.95;;;9.57;;
4971;SDS011;2501;51.214;6.768;2024-02-26T13:38:19;17.52;;;9.90;;
4971;SDS011;2501;51.214;6.768;2024-02-26T13:40:48;15.20;;;9.10;;
4971;SDS011;2501;51.214;6.768;2024-02-26T13:43:20;15.57;;;10.55;;
4971;SDS011;2501;51.214;6.768;2024-02-26T13:45:48;15.60;;;10.30;;
4971;SDS011;2501;51.214;6.768;2024-02-26T13:48:17;15.60;;;9.25;;
4971;SDS011;2501;51.214;6.768;2024-02-26T13:50:45;12.90;;;9.20;;
4971;SDS011;2501;51.214;6.768;2024-02-26T13:53:14;15.70;;;9.80;;
4971;SDS011;2501;51.214;6.768;2024-02-26T13:55:42;13.32;;;9.07;;
4971;SDS011;2501;51.214;6.768;2024-02-26T13:58:11;14.07;;;10.00;;
4971;SDS011;2501;51.214;6.768;2024-02-26T14:00:45;17.17;;;10.25;;
4971;SDS011;2501;51.214;6.768;2024-02-26T14:03:14;14.30;;;9.15;;
4971;SDS011;2501;51.214;6.768;2024-02-26T14:05:43;12.40;;;9.40;;
4971;SDS011;2501;51.214;6.768;2024-02-26T14:08:11;13.47;;;9.47;;
4971;SDS011;2501;51.214;6.768;2024-02-26T14:10:40;13.30;;;9.57;;
4971;SDS011;2501;51.214;6.768;2024-02-26T14:13:09;15.10;;;9.10;;
4971;SDS011;2501;51.214;6.768;2024-02-26T14:15:38;12.83;;;9.13;;
4971;SDS011;2501;51.214;6.768;2024-02-26T14:18:09;11.82;;;8.82;;
4971;SDS011;2501;51.214;6.768;2024-02-26T14:20:37;14.88;;;9.15;;
4971;SDS011;2501;51.214;6.768;2024-02-26T14:23:06;12.45;;;9.05;;
4971;SDS011;2501;51.214;6.768;2024-02-26T14:25:34;14.45;;;8.73;;
4971;SDS011;2501;51.214;6.768;2024-02-26T14:28:03;13.20;;;8.20;;
4971;SDS011;2501;51.214;6.768;2024-02-26T14:30:31;13.30;;;8.32;;
4971;SDS011;2501;51.214;6.768;2024-02-26T14:33:00;10.45;;;7.45;;
4971;SDS011;2501;51.214;6.768;2024-02-26T14:35:31;9.73;;;7.38;;
4971;SDS011;2501;51.214;6.768;2024-02-26T14:38:00;12.55;;;7.75;;
4971;SDS011;2501;51.214;6.768;2024-02-26T14:40:29;8.93;;;7.43;;
4971;SDS011;2501;51.214;6.768;2024-02-26T14:42:57;10.07;;;7.97;;
4971;SDS011;2501;51.214;6.768;2024-02-26T14:45:25;10.60;;;7.85;;
4971;SDS011;2501;51.214;6.768;2024-02-26T14:47:54;11.33;;;7.00;;
4971;SDS011;2501;51.214;6.768;2024-02-26T14:50:22;9.95;;;7.07;;
4971;SDS011;2501;51.214;6.768;2024-02-26T14:52:53;12.63;;;6.65;;
4971;SDS011;2501;51.214;6.768;2024-02-26T14:55:23;8.55;;;6.47;;
4971;SDS011;2501;51.214;6.768;2024-02-26T14:57:52;9.98;;;6.80;;
4971;SDS011;2501;51.214;6.768;2024-02-26T15:00:20;9.10;;;6.30;;
4971;SDS011;2501;51.214;6.768;2024-02-26T15:02:48;8.25;;;6.20;;
4971;SDS011;2501;51.214;6.768;2024-02-26T15:05:19;8.98;;;6.53;;
4971;SDS011;2501;51.214;6.768;2024-02-26T15:07:49;9.85;;;6.70;;
4971;SDS011;2501;51.214;6.768;2024-02-26T15:10:20;8.40;;;6.25;;
4971;SDS011;2501;51.214;6.768;2024-02-26T15:12:49;7.03;;;6.32;;
4971;SDS011;2501;51.214;6.768;2024-02-26T15:15:19;11.80;;;6.60;;
4971;SDS011;2501;51.214;6.768;2024-02-26T15:17:48;10.13;;;6.80;;
4971;SDS011;2501;51.214;6.768;2024-02-26T15:20:17;9.55;;;6.65;;
4971;SDS011;2501;51.214;6.768;2024-02-26T15:22:48;10.75;;;6.40;;
4971;SDS011;2501;51.214;6.768;2024-02-26T15:25:19;7.75;;;6.40;;
4971;SDS011;2501;51.214;6.768;2024-02-26T15:27:48;8.38;;;6.63;;